Time;durP1;ratioP1;P1;durP2;ratioP2;P2;SDS_P1;SDS_P2;PMS_P1;PMS_P2;Temp;Humidity;BMP_temperature;BMP_pressure;BME280_temperature;BME280_humidity;BME280_pressure;Samples;Min_cycle;Max_cycle;Signal;HPM_P1;HPM_P2
2021/12/12 00:00:27;;;;;;;16.13;9.80;;;14.60;50.40;;;;;;5013755;28;20912;-84
2021/12/12 00:02:59;;;;;;;16.30;10.40;;;14.60;50.50;;;;;;5007835;28;20488;-84
2021/12/12 00:05:41;;;;;;;15.60;9.27;;;14.60;50.40;;;;;;5012518;28;20471;-83
2021/12/12 00:08:11;;;;;;;18.40;10.10;;;14.60;50.50;;;;;;5009063;28;20457;-83
2021/12/12 00:10:41;;;;;;;18.23;10.00;;;14.60;50.40;;;;;;5013293;28;20456;-84
2021/12/12 00:13:11;;;;;;;17.27;9.87;;;14.60;50.50;;;;;;5012407;28;20464;-84
2021/12/12 00:15:39;;;;;;;15.60;9.60;;;14.60;50.50;;;;;;5012877;28;20862;-83
2021/12/12 00:18:10;;;;;;;14.90;10.17;;;14.60;50.50;;;;;;5012576;28;20490;-83
2021/12/12 00:20:40;;;;;;;16.47;9.90;;;14.70;50.60;;;;;;5012358;28;20535;-83
2021/12/12 00:23:08;;;;;;;17.70;10.37;;;14.60;50.40;;;;;;5012867;28;20480;-83
2021/12/12 00:25:39;;;;;;;16.20;10.07;;;14.60;50.50;;;;;;5009508;28;20519;-82
2021/12/12 00:28:07;;;;;;;14.60;9.47;;;14.60;50.60;;;;;;5004272;28;20539;-84
2021/12/12 00:30:36;;;;;;;18.60;10.30;;;14.60;50.50;;;;;;5011548;28;20479;-83
2021/12/12 00:33:04;;;;;;;16.33;10.50;;;14.60;50.50;;;;;;5012005;28;20484;-83
2021/12/12 00:35:33;;;;;;;14.93;9.63;;;14.60;50.60;;;;;;5018086;28;20539;-83
2021/12/12 00:38:04;;;;;;;15.03;9.40;;;14.60;50.40;;;;;;5019502;28;20436;-82
2021/12/12 00:40:34;;;;;;;18.97;10.83;;;14.60;50.60;;;;;;5022858;28;20474;-83
2021/12/12 00:43:06;;;;;;;14.17;9.73;;;14.70;50.60;;;;;;5019919;28;20556;-83
2021/12/12 00:45:39;;;;;;;18.60;10.60;;;14.70;50.50;;;;;;5018495;28;20458;-82
2021/12/12 00:48:08;;;;;;;17.13;10.53;;;14.70;50.50;;;;;;5021485;28;20535;-83
2021/12/12 00:50:37;;;;;;;18.37;10.40;;;14.70;50.50;;;;;;5021787;28;20436;-84
2021/12/12 00:53:07;;;;;;;18.30;10.53;;;14.60;50.40;;;;;;5021024;28;20464;-84
2021/12/12 00:55:37;;;;;;;15.47;10.20;;;14.60;50.50;;;;;;5022246;28;20498;-83
2021/12/12 00:58:06;;;;;;;18.47;10.33;;;14.60;50.60;;;;;;5022925;28;20452;-84
2021/12/12 01:00:36;;;;;;;15.40;10.40;;;14.70;50.60;;;;;;5018073;28;20460;-83
2021/12/12 01:03:05;;;;;;;15.27;9.83;;;14.60;50.60;;;;;;5015283;28;20614;-84
2021/12/12 01:05:33;;;;;;;17.27;10.10;;;14.70;50.60;;;;;;5022076;28;20507;-81
2021/12/12 01:08:05;;;;;;;15.73;10.00;;;14.60;50.60;;;;;;5021452;28;20524;-82
2021/12/12 01:10:37;;;;;;;17.63;9.77;;;14.70;50.60;;;;;;5020641;28;20444;-82
2021/12/12 01:13:06;;;;;;;25.13;10.90;;;14.60;50.60;;;;;;5020594;28;20476;-83
2021/12/12 01:15:35;;;;;;;19.40;10.97;;;14.70;50.60;;;;;;5021324;28;20440;-84
2021/12/12 01:18:05;;;;;;;17.80;10.80;;;14.60;50.50;;;;;;5017201;28;20452;-84
2021/12/12 01:20:37;;;;;;;19.53;11.43;;;14.60;50.50;;;;;;5038225;28;20471;-82
2021/12/12 01:23:09;;;;;;;18.87;11.47;;;14.60;50.50;;;;;;5015181;28;20472;-83
2021/12/12 01:25:44;;;;;;;19.00;11.10;;;14.60;50.60;;;;;;5014937;28;20500;-84
2021/12/12 01:28:12;;;;;;;16.67;10.10;;;14.70;50.70;;;;;;5014792;28;20490;-85
2021/12/12 01:30:43;;;;;;;21.13;11.93;;;14.70;50.80;;;;;;5019389;28;20919;-82
2021/12/12 01:33:18;;;;;;;20.00;11.57;;;14.70;50.60;;;;;;5017895;28;20472;-83
2021/12/12 01:35:45;;;;;;;19.53;12.00;;;14.70;50.50;;;;;;5010254;28;20490;-84
2021/12/12 01:41:01;;;;;;;22.70;11.97;;;14.70;50.70;;;;;;5014463;28;20467;-83
2021/12/12 01:43:33;;;;;;;23.20;12.77;;;14.70;50.80;;;;;;5013413;28;20500;-84
2021/12/12 01:46:05;;;;;;;19.43;11.80;;;14.70;50.70;;;;;;5013651;28;20462;-82
2021/12/12 01:48:37;;;;;;;18.20;11.43;;;14.70;50.80;;;;;;5013851;28;20429;-81
2021/12/12 01:51:07;;;;;;;19.50;11.50;;;14.70;50.70;;;;;;5009989;28;20492;-82
2021/12/12 01:53:37;;;;;;;21.80;12.00;;;14.70;50.80;;;;;;5012911;28;20490;-83
2021/12/12 01:56:10;;;;;;;21.63;12.07;;;14.70;50.80;;;;;;4993710;28;20438;-83
2021/12/12 01:58:39;;;;;;;24.13;12.27;;;14.70;50.70;;;;;;4993399;28;20453;-83
2021/12/12 02:01:08;;;;;;;21.30;12.23;;;14.70;50.70;;;;;;4994024;28;20442;-83
2021/12/12 02:03:38;;;;;;;21.40;12.43;;;14.70;50.60;;;;;;4993881;28;20500;-83
2021/12/12 02:06:07;;;;;;;22.60;11.90;;;14.70;50.80;;;;;;4993611;28;20475;-83
2021/12/12 02:08:35;;;;;;;20.70;12.10;;;14.70;50.80;;;;;;5008364;28;20517;-83
2021/12/12 02:11:06;;;;;;;23.57;13.63;;;14.70;50.80;;;;;;4993658;28;20426;-84
2021/12/12 02:13:38;;;;;;;22.17;12.40;;;14.70;50.80;;;;;;4993063;28;20548;-83
2021/12/12 02:16:06;;;;;;;25.20;14.10;;;14.70;50.90;;;;;;4994738;28;20460;-84
2021/12/12 02:18:38;;;;;;;21.43;12.67;;;14.70;50.80;;;;;;4994530;28;20456;-84
2021/12/12 02:21:11;;;;;;;21.63;12.77;;;14.70;50.80;;;;;;4993970;28;20429;-84
2021/12/12 02:24:03;;;;;;;18.73;12.13;;;14.70;50.80;;;;;;4993963;28;20477;-84
2021/12/12 02:35:14;;;;;;;22.60;13.90;;;14.70;50.90;;;;;;5012600;28;20447;-82
2021/12/12 02:37:42;;;;;;;20.73;12.37;;;14.70;51.10;;;;;;5012551;28;20499;-83
2021/12/12 02:40:15;;;;;;;21.53;12.43;;;14.70;50.90;;;;;;5012799;28;20523;-83
2021/12/12 02:42:43;;;;;;;23.63;13.03;;;14.70;51.00;;;;;;5008521;28;20504;-83
2021/12/12 02:45:11;;;;;;;24.00;13.47;;;14.70;51.00;;;;;;5012531;28;20488;-82
2021/12/12 02:47:39;;;;;;;28.77;14.13;;;14.70;51.00;;;;;;5012500;28;20440;-83
2021/12/12 02:50:13;;;;;;;22.30;12.30;;;14.70;51.10;;;;;;5012170;28;20428;-83
2021/12/12 02:52:42;;;;;;;22.37;13.40;;;14.80;51.00;;;;;;5012732;28;20548;-83
2021/12/12 02:55:13;;;;;;;23.43;13.60;;;14.70;51.00;;;;;;5012227;28;20460;-82
2021/12/12 02:57:42;;;;;;;26.57;14.03;;;14.70;50.90;;;;;;5006948;28;20540;-83
2021/12/12 03:00:11;;;;;;;23.37;12.60;;;14.70;51.00;;;;;;5004967;28;20460;-83
2021/12/12 03:02:45;;;;;;;25.57;14.00;;;14.70;51.00;;;;;;5008315;28;20563;-83
2021/12/12 03:05:14;;;;;;;22.53;12.43;;;14.70;50.90;;;;;;5011074;28;20472;-83
2021/12/12 03:07:42;;;;;;;28.27;13.27;;;14.70;50.90;;;;;;5005933;28;20486;-83
2021/12/12 03:10:13;;;;;;;24.07;13.20;;;14.80;51.10;;;;;;5011565;28;20459;-83
2021/12/12 03:12:41;;;;;;;20.23;12.73;;;14.80;51.00;;;;;;5005118;28;20477;-83
2021/12/12 03:15:11;;;;;;;25.43;13.23;;;14.80;51.00;;;;;;5011303;28;20468;-82
2021/12/12 03:17:39;;;;;;;24.30;13.50;;;14.80;51.20;;;;;;5003961;28;20839;-82
2021/12/12 03:20:10;;;;;;;24.27;13.23;;;14.80;51.10;;;;;;5011011;28;20441;-84
2021/12/12 03:22:38;;;;;;;23.93;13.70;;;14.80;51.10;;;;;;5008683;28;20503;-83
2021/12/12 03:25:07;;;;;;;19.10;11.97;;;14.80;51.10;;;;;;5008679;28;20472;-82
2021/12/12 03:27:38;;;;;;;23.03;13.23;;;14.80;51.00;;;;;;5009481;28;20548;-84
2021/12/12 03:30:07;;;;;;;22.80;13.47;;;14.80;51.10;;;;;;5010284;28;20460;-82
2021/12/12 03:32:35;;;;;;;23.50;13.40;;;14.80;51.10;;;;;;5006827;28;20492;-83
2021/12/12 03:35:06;;;;;;;19.87;12.43;;;14.80;51.10;;;;;;5003317;28;20512;-82
2021/12/12 03:37:34;;;;;;;27.97;13.83;;;14.80;51.70;;;;;;5010873;28;20475;-83
2021/12/12 03:40:07;;;;;;;29.73;14.57;;;14.80;51.20;;;;;;5011425;28;20448;-84
2021/12/12 03:42:36;;;;;;;22.33;12.70;;;14.80;51.10;;;;;;5011884;28;20535;-83
2021/12/12 03:45:05;;;;;;;21.53;12.93;;;14.80;51.10;;;;;;5011157;28;20504;-83
2021/12/12 03:47:35;;;;;;;23.63;14.20;;;14.80;51.20;;;;;;5011129;28;20437;-83
2021/12/12 03:50:06;;;;;;;27.17;14.30;;;14.80;51.20;;;;;;5006419;28;20453;-83
2021/12/12 03:52:34;;;;;;;27.83;13.93;;;14.80;51.10;;;;;;5011020;28;20522;-83
2021/12/12 03:55:02;;;;;;;24.20;14.03;;;14.80;51.20;;;;;;5011438;28;20468;-82
2021/12/12 03:57:30;;;;;;;24.70;14.07;;;14.80;51.10;;;;;;5011162;28;20535;-83
2021/12/12 04:00:05;;;;;;;25.30;13.90;;;14.80;51.20;;;;;;5011626;28;20451;-82
2021/12/12 04:02:33;;;;;;;23.00;13.27;;;14.80;51.20;;;;;;5011126;28;20820;-83
2021/12/12 04:05:01;;;;;;;24.03;13.67;;;14.70;51.20;;;;;;5011594;28;20437;-83
2021/12/12 04:07:29;;;;;;;20.80;13.40;;;14.80;51.20;;;;;;5006958;28;20555;-82
2021/12/12 04:09:58;;;;;;;23.00;12.50;;;14.80;51.20;;;;;;5011481;28;20490;-82
2021/12/12 04:12:26;;;;;;;21.83;13.77;;;14.80;51.30;;;;;;5011035;28;20424;-82
2021/12/12 04:14:55;;;;;;;20.83;12.57;;;14.80;51.20;;;;;;5014238;28;20543;-82
2021/12/12 04:17:27;;;;;;;19.97;12.23;;;14.70;51.20;;;;;;5014979;28;20443;-83
2021/12/12 04:19:57;;;;;;;21.93;12.90;;;14.80;51.30;;;;;;5014309;28;20530;-82
2021/12/12 04:22:26;;;;;;;19.93;12.50;;;14.80;51.30;;;;;;5014440;28;20532;-82
2021/12/12 04:24:55;;;;;;;20.33;12.20;;;14.70;51.20;;;;;;5012350;28;20543;-82
2021/12/12 04:27:24;;;;;;;21.37;13.03;;;14.70;51.30;;;;;;5014591;28;20515;-82
2021/12/12 04:29:53;;;;;;;26.50;14.07;;;14.70;51.40;;;;;;5014433;28;20441;-82
2021/12/12 04:32:22;;;;;;;21.27;13.30;;;14.70;51.40;;;;;;5014371;28;20556;-82
2021/12/12 04:34:55;;;;;;;19.77;13.30;;;14.70;51.40;;;;;;5013942;28;20497;-82
2021/12/12 04:37:23;;;;;;;22.57;12.77;;;14.70;51.30;;;;;;5014955;28;20840;-82
2021/12/12 04:39:54;;;;;;;23.53;13.17;;;14.70;51.40;;;;;;5012575;28;20487;-83
2021/12/12 04:42:23;;;;;;;20.77;12.43;;;14.70;51.40;;;;;;5011640;28;20468;-82
2021/12/12 04:45:08;;;;;;;26.30;13.23;;;14.70;51.30;;;;;;5014242;28;20499;-82
2021/12/12 04:50:27;;;;;;;21.70;13.00;;;14.70;51.40;;;;;;5016970;28;20446;-83
2021/12/12 04:52:57;;;;;;;24.63;13.07;;;14.70;51.40;;;;;;5019277;28;20905;-83
2021/12/12 04:55:28;;;;;;;22.60;13.60;;;14.70;51.60;;;;;;5019474;28;20439;-83
2021/12/12 04:58:00;;;;;;;21.87;12.63;;;14.70;51.50;;;;;;5015337;28;20468;-83
2021/12/12 05:00:30;;;;;;;19.40;12.80;;;14.70;51.40;;;;;;5016476;28;20448;-82
2021/12/12 05:03:00;;;;;;;21.03;12.73;;;14.70;51.40;;;;;;5017203;28;20517;-82
2021/12/12 05:05:32;;;;;;;21.50;12.70;;;14.60;51.60;;;;;;5011585;28;20452;-83
2021/12/12 05:08:04;;;;;;;17.47;11.70;;;14.60;51.50;;;;;;5014954;28;20492;-82
2021/12/12 05:10:36;;;;;;;19.77;12.13;;;14.70;51.50;;;;;;4998204;28;20944;-83
2021/12/12 05:13:07;;;;;;;26.13;12.23;;;14.70;51.50;;;;;;4998910;28;20466;-83
2021/12/12 05:15:36;;;;;;;22.40;12.37;;;14.70;51.50;;;;;;5000436;28;20456;-83
2021/12/12 05:18:07;;;;;;;16.17;11.27;;;14.70;51.50;;;;;;5015169;28;20444;-82
2021/12/12 05:20:38;;;;;;;21.73;11.77;;;14.70;51.50;;;;;;5017937;28;20471;-83
2021/12/12 05:23:07;;;;;;;22.63;12.33;;;14.70;51.50;;;;;;5018269;28;20448;-83
2021/12/12 05:25:37;;;;;;;19.87;11.57;;;14.70;51.50;;;;;;5017330;28;20472;-82
2021/12/12 05:28:05;;;;;;;17.87;10.80;;;14.70;51.40;;;;;;5017958;28;20468;-83
2021/12/12 05:30:34;;;;;;;21.30;12.10;;;14.60;51.40;;;;;;5018482;28;21006;-83
2021/12/12 05:33:02;;;;;;;21.27;11.40;;;14.60;51.50;;;;;;5013384;28;20488;-82
2021/12/12 05:35:32;;;;;;;18.50;10.47;;;14.70;51.60;;;;;;5018225;28;20482;-83
2021/12/12 05:38:06;;;;;;;16.67;10.00;;;14.60;51.40;;;;;;5018164;28;20440;-82
2021/12/12 05:40:35;;;;;;;14.67;10.10;;;14.60;51.50;;;;;;5017649;28;20448;-83
2021/12/12 05:43:04;;;;;;;18.10;10.47;;;14.60;51.80;;;;;;5018104;28;20452;-82
2021/12/12 05:45:33;;;;;;;16.83;9.80;;;14.60;51.60;;;;;;5017353;28;20477;-83
2021/12/12 05:48:01;;;;;;;16.10;10.17;;;14.60;51.50;;;;;;5017076;28;20483;-83
2021/12/12 05:50:29;;;;;;;15.80;10.30;;;14.60;51.60;;;;;;5013463;28;20461;-84
2021/12/12 05:52:57;;;;;;;18.57;9.43;;;14.60;51.60;;;;;;5017404;28;20595;-83
2021/12/12 05:55:27;;;;;;;17.80;9.93;;;14.60;51.50;;;;;;5018395;28;20440;-83
2021/12/12 05:57:56;;;;;;;17.13;9.90;;;14.60;51.60;;;;;;5018237;28;20461;-82
2021/12/12 06:00:27;;;;;;;14.10;9.07;;;14.60;51.50;;;;;;5018119;28;20456;-83
2021/12/12 06:02:55;;;;;;;13.57;9.03;;;14.60;51.70;;;;;;5017679;28;20488;-83
2021/12/12 06:05:23;;;;;;;21.50;9.90;;;14.60;51.60;;;;;;5014913;28;20437;-84
2021/12/12 06:07:53;;;;;;;16.73;9.27;;;14.60;51.70;;;;;;5013639;28;20472;-83
2021/12/12 06:10:21;;;;;;;16.23;9.37;;;14.60;51.70;;;;;;5012149;28;20480;-83
2021/12/12 06:12:50;;;;;;;14.27;8.90;;;14.60;51.70;;;;;;5014611;28;20521;-84
2021/12/12 06:15:19;;;;;;;14.83;9.10;;;14.60;51.70;;;;;;5015207;28;20432;-86
2021/12/12 06:17:48;;;;;;;14.37;8.30;;;14.60;51.70;;;;;;5015615;28;20483;-84
2021/12/12 06:20:16;;;;;;;14.70;8.10;;;14.60;51.60;;;;;;5015352;28;20536;-83
2021/12/12 06:22:44;;;;;;;11.50;7.43;;;14.60;51.70;;;;;;5015411;28;20503;-85
2021/12/12 06:25:12;;;;;;;13.40;8.73;;;14.60;51.70;;;;;;5014003;28;20477;-84
2021/12/12 06:27:40;;;;;;;15.83;8.00;;;14.60;51.80;;;;;;5014867;28;20569;-84
2021/12/12 06:30:12;;;;;;;15.67;8.10;;;14.60;51.80;;;;;;5016480;28;20448;-84
2021/12/12 06:32:40;;;;;;;15.10;8.33;;;14.60;51.80;;;;;;5015683;28;20499;-83
2021/12/12 06:35:09;;;;;;;14.47;7.67;;;14.60;51.80;;;;;;5014724;28;20475;-83
2021/12/12 06:37:37;;;;;;;13.73;7.83;;;14.60;51.80;;;;;;5014059;28;20512;-83
2021/12/12 06:40:06;;;;;;;12.93;7.60;;;14.60;51.80;;;;;;5013433;28;20496;-84
2021/12/12 06:42:34;;;;;;;13.90;8.03;;;14.60;51.80;;;;;;5010975;28;20958;-83
2021/12/12 06:45:02;;;;;;;10.60;6.93;;;14.60;51.80;;;;;;5013857;28;20493;-83
2021/12/12 06:47:31;;;;;;;11.73;7.40;;;14.60;51.80;;;;;;5013601;28;20519;-83
2021/12/12 06:49:59;;;;;;;11.93;7.30;;;14.60;51.90;;;;;;5013763;28;20444;-84
2021/12/12 06:52:27;;;;;;;12.23;7.20;;;14.60;51.90;;;;;;5014386;28;20458;-83
2021/12/12 06:54:55;;;;;;;14.10;7.40;;;14.60;52.00;;;;;;5014242;28;20894;-83
2021/12/12 06:57:23;;;;;;;9.83;6.60;;;14.60;51.80;;;;;;5013865;28;20523;-84
2021/12/12 06:59:51;;;;;;;8.77;6.10;;;14.60;51.80;;;;;;5012003;28;20551;-83
2021/12/12 07:02:19;;;;;;;12.30;6.53;;;14.60;52.00;;;;;;5013061;28;20466;-83
2021/12/12 07:04:49;;;;;;;8.80;6.50;;;14.60;51.90;;;;;;5014209;28;20433;-83
2021/12/12 07:07:17;;;;;;;9.20;6.47;;;14.60;51.90;;;;;;5014033;28;20512;-83
2021/12/12 07:09:46;;;;;;;11.43;6.83;;;14.60;52.00;;;;;;5014094;28;20530;-83
2021/12/12 07:12:15;;;;;;;12.27;7.40;;;14.60;51.90;;;;;;5014354;28;20535;-84
2021/12/12 07:14:44;;;;;;;8.97;6.43;;;14.60;51.90;;;;;;5013676;28;20468;-83
2021/12/12 07:17:11;;;;;;;8.53;6.00;;;14.60;52.00;;;;;;5010982;28;20545;-83
2021/12/12 07:19:41;;;;;;;9.63;6.07;;;14.60;52.10;;;;;;5013632;28;20443;-84
2021/12/12 07:22:10;;;;;;;11.00;6.50;;;14.60;52.10;;;;;;5014208;28;20475;-83
2021/12/12 07:24:38;;;;;;;8.83;6.10;;;14.60;52.10;;;;;;5013923;28;20544;-82
2021/12/12 07:27:06;;;;;;;8.30;5.80;;;14.60;52.10;;;;;;5013403;28;20472;-82
2021/12/12 07:29:34;;;;;;;9.93;5.90;;;14.70;52.10;;;;;;5013520;28;20439;-83
2021/12/12 07:32:02;;;;;;;7.40;5.03;;;14.70;52.70;;;;;;5012379;28;20440;-84
2021/12/12 07:34:30;;;;;;;7.80;5.23;;;14.60;52.10;;;;;;5009325;28;20467;-83
2021/12/12 07:37:00;;;;;;;9.70;6.20;;;14.70;52.10;;;;;;5013876;28;20487;-83
2021/12/12 07:39:30;;;;;;;9.83;5.90;;;14.70;52.10;;;;;;5013276;28;20520;-83
2021/12/12 07:41:58;;;;;;;8.00;5.47;;;14.70;52.10;;;;;;5013495;28;20437;-83
2021/12/12 07:44:29;;;;;;;6.40;5.20;;;14.70;52.10;;;;;;5013534;28;20521;-83
2021/12/12 07:46:58;;;;;;;8.00;5.33;;;14.70;52.10;;;;;;5013486;28;20475;-83
2021/12/12 07:49:29;;;;;;;8.77;4.97;;;14.70;52.20;;;;;;5010558;28;20545;-84
2021/12/12 07:51:57;;;;;;;7.67;5.10;;;14.70;52.10;;;;;;5013319;28;20535;-82
2021/12/12 07:54:25;;;;;;;8.83;5.30;;;14.70;52.10;;;;;;5013228;28;20536;-83
2021/12/12 07:56:55;;;;;;;8.63;5.23;;;14.70;52.20;;;;;;5012997;28;20464;-82
2021/12/12 07:59:23;;;;;;;9.63;4.87;;;14.70;52.40;;;;;;5012865;28;20527;-83
2021/12/12 08:01:51;;;;;;;6.17;4.63;;;14.70;52.20;;;;;;5012942;28;20476;-84
2021/12/12 08:04:22;;;;;;;5.20;4.60;;;14.70;52.20;;;;;;5013283;28;20472;-83
2021/12/12 08:06:50;;;;;;;8.00;4.60;;;14.70;52.30;;;;;;5013123;28;20470;-83
2021/12/12 08:09:19;;;;;;;5.37;4.63;;;14.70;52.40;;;;;;5007728;28;20576;-82
2021/12/12 08:11:46;;;;;;;5.40;4.83;;;14.70;52.20;;;;;;5012086;28;20464;-83
2021/12/12 08:14:19;;;;;;;7.20;5.07;;;14.70;52.30;;;;;;5012854;28;20556;-82
2021/12/12 08:16:48;;;;;;;5.83;4.23;;;14.70;52.40;;;;;;5013192;28;20433;-82
2021/12/12 08:19:17;;;;;;;4.40;4.00;;;14.70;52.40;;;;;;5013088;28;20531;-82
2021/12/12 08:21:44;;;;;;;6.40;4.50;;;14.70;52.30;;;;;;5013215;28;20536;-82
2021/12/12 08:24:12;;;;;;;4.83;4.20;;;14.70;52.20;;;;;;5010772;28;20484;-82
2021/12/12 08:26:42;;;;;;;4.80;4.23;;;14.70;52.30;;;;;;5013703;28;20433;-81
2021/12/12 08:29:11;;;;;;;5.10;4.60;;;14.70;52.40;;;;;;5013491;28;20500;-82
2021/12/12 08:31:40;;;;;;;5.30;4.37;;;14.70;52.40;;;;;;5012816;28;20550;-82
2021/12/12 08:34:10;;;;;;;4.50;4.10;;;14.70;52.30;;;;;;5012915;28;20472;-81
2021/12/12 08:36:40;;;;;;;4.27;3.90;;;14.70;52.40;;;;;;5013130;28;20497;-81
2021/12/12 08:39:09;;;;;;;4.43;4.03;;;14.70;52.50;;;;;;5014876;28;20460;-81
2021/12/12 08:41:37;;;;;;;5.37;4.27;;;14.70;52.40;;;;;;5012344;28;20962;-81
2021/12/12 08:44:07;;;;;;;4.53;4.00;;;14.70;52.40;;;;;;5014923;28;20481;-81
2021/12/12 08:46:35;;;;;;;3.60;3.30;;;14.70;52.50;;;;;;5014858;28;20433;-80
2021/12/12 08:49:05;;;;;;;4.40;3.63;;;14.70;52.40;;;;;;5015115;28;20479;-80
2021/12/12 08:51:35;;;;;;;4.30;3.90;;;14.80;52.50;;;;;;5015454;28;20448;-82
2021/12/12 08:54:13;;;;;;;4.17;3.77;;;14.80;52.40;;;;;;5015270;28;20509;-80
2021/12/12 08:56:44;;;;;;;3.60;3.33;;;14.80;52.50;;;;;;5012038;28;20489;-81
2021/12/12 08:59:13;;;;;;;6.10;3.33;;;14.80;52.50;;;;;;5011816;28;20527;-82
2021/12/12 09:01:41;;;;;;;3.77;3.47;;;14.80;52.60;;;;;;5014936;28;20459;-81
2021/12/12 09:04:11;;;;;;;3.90;3.57;;;14.80;52.50;;;;;;5018708;28;20448;-81
2021/12/12 09:06:58;;;;;;;4.10;3.43;;;14.80;52.60;;;;;;5018159;28;20447;-81
2021/12/12 09:09:28;;;;;;;4.20;3.80;;;14.80;52.50;;;;;;5013551;28;20479;-81
2021/12/12 09:12:02;;;;;;;4.63;3.90;;;14.90;52.50;;;;;;5013619;28;20863;-82
2021/12/12 09:14:33;;;;;;;4.37;3.93;;;14.90;52.60;;;;;;5010289;28;20472;-81
2021/12/12 09:17:02;;;;;;;3.57;3.30;;;14.90;52.50;;;;;;5013104;28;20498;-82
2021/12/12 09:19:35;;;;;;;3.87;3.47;;;14.90;52.40;;;;;;5013698;28;20479;-82
2021/12/12 09:22:06;;;;;;;4.67;3.60;;;14.90;52.60;;;;;;5012919;28;20531;-82
2021/12/12 09:24:44;;;;;;;3.90;3.60;;;14.90;52.60;;;;;;5013499;28;20474;-82
2021/12/12 09:27:14;;;;;;;3.67;3.43;;;14.90;52.60;;;;;;5013535;28;20625;-82
2021/12/12 09:29:44;;;;;;;3.90;3.30;;;14.90;52.60;;;;;;5012199;28;20476;-82
2021/12/12 09:32:12;;;;;;;3.13;2.93;;;14.90;52.60;;;;;;5008212;28;20894;-82
2021/12/12 09:34:45;;;;;;;3.63;3.33;;;15.00;52.60;;;;;;5012863;28;20503;-82
2021/12/12 09:37:17;;;;;;;3.57;3.27;;;15.00;52.60;;;;;;5012592;28;20437;-82
2021/12/12 09:39:54;;;;;;;3.43;3.20;;;14.90;52.50;;;;;;5012478;28;20534;-82
2021/12/12 09:42:48;;;;;;;3.60;3.30;;;15.00;52.70;;;;;;5012467;28;20441;-82
2021/12/12 09:45:43;;;;;;;3.37;3.03;;;15.00;52.70;;;;;;5012648;28;20440;-82
2021/12/12 09:51:47;;;;;;;3.27;3.07;;;15.00;52.60;;;;;;4996093;28;20469;-82
2021/12/12 09:54:26;;;;;;;3.47;3.17;;;15.00;52.70;;;;;;4994359;28;20474;-82
2021/12/12 09:56:57;;;;;;;2.80;2.60;;;15.00;52.80;;;;;;4995453;28;20447;-81
2021/12/12 09:59:48;;;;;;;3.10;3.00;;;15.00;52.80;;;;;;4995241;28;20525;-82
2021/12/12 10:02:21;;;;;;;3.20;3.00;;;15.00;52.80;;;;;;4995097;28;20485;-82
2021/12/12 10:05:04;;;;;;;3.10;2.83;;;15.10;52.80;;;;;;5009975;28;20543;-82
2021/12/12 10:07:44;;;;;;;3.30;3.10;;;15.10;52.80;;;;;;5012900;28;20496;-82
2021/12/12 10:10:15;;;;;;;2.77;2.57;;;15.10;52.80;;;;;;5012389;28;20564;-82
2021/12/12 10:12:48;;;;;;;3.87;3.30;;;15.10;52.80;;;;;;5012577;28;20476;-82
2021/12/12 10:15:20;;;;;;;2.93;2.73;;;15.10;52.80;;;;;;5012502;28;20433;-82
2021/12/12 10:17:49;;;;;;;3.20;2.90;;;15.10;52.90;;;;;;5012799;28;20536;-82
2021/12/12 10:20:20;;;;;;;3.27;3.00;;;15.10;52.90;;;;;;5012504;28;20535;-82
2021/12/12 10:22:57;;;;;;;3.00;2.70;;;15.10;52.80;;;;;;5010749;28;20561;-82
2021/12/12 10:25:27;;;;;;;2.87;2.67;;;15.20;52.90;;;;;;5012897;28;20456;-82
2021/12/12 10:27:58;;;;;;;3.20;3.00;;;15.20;52.90;;;;;;5012502;28;20508;-82
2021/12/12 10:30:28;;;;;;;2.73;2.57;;;15.20;52.90;;;;;;5012420;28;20480;-81
2021/12/12 10:33:03;;;;;;;2.93;2.80;;;15.30;53.00;;;;;;5012525;28;20913;-82
2021/12/12 10:35:34;;;;;;;2.70;2.53;;;15.20;52.90;;;;;;5012635;28;20531;-83
2021/12/12 10:38:05;;;;;;;3.00;2.80;;;15.20;52.90;;;;;;5010010;28;20543;-82
2021/12/12 10:40:36;;;;;;;3.00;2.83;;;15.30;52.90;;;;;;5012218;28;20543;-83
2021/12/12 10:43:06;;;;;;;2.93;2.73;;;15.30;53.00;;;;;;5012095;28;20513;-82
2021/12/12 10:45:37;;;;;;;2.50;2.40;;;15.30;53.00;;;;;;5011937;28;20429;-82
2021/12/12 10:48:06;;;;;;;2.50;2.37;;;15.30;53.00;;;;;;5012189;28;20528;-82
2021/12/12 10:50:42;;;;;;;3.07;2.87;;;15.30;53.00;;;;;;5012279;28;20502;-82
2021/12/12 10:53:21;;;;;;;2.93;2.73;;;15.30;53.00;;;;;;5011674;28;20607;-82
2021/12/12 10:55:54;;;;;;;2.93;2.73;;;15.30;53.00;;;;;;5011259;28;20444;-83
2021/12/12 10:58:27;;;;;;;2.80;2.60;;;15.30;53.00;;;;;;5012544;28;20476;-83
2021/12/12 11:00:58;;;;;;;3.27;2.90;;;15.40;53.00;;;;;;5012072;28;20468;-82
2021/12/12 11:03:30;;;;;;;3.77;2.33;;;15.40;53.10;;;;;;5012167;28;20464;-83
2021/12/12 11:06:01;;;;;;;2.50;2.40;;;15.40;53.10;;;;;;5015513;28;20441;-82
2021/12/12 11:08:35;;;;;;;2.80;2.70;;;15.40;53.10;;;;;;5016309;28;20440;-82
2021/12/12 11:11:09;;;;;;;2.43;2.33;;;15.40;53.00;;;;;;5016600;28;20427;-82
2021/12/12 11:13:38;;;;;;;2.80;2.60;;;15.40;53.10;;;;;;5014904;28;20483;-82
2021/12/12 11:16:10;;;;;;;2.23;2.13;;;15.40;53.00;;;;;;4996826;28;20525;-82
2021/12/12 11:18:40;;;;;;;2.90;2.80;;;15.50;53.20;;;;;;4996523;28;20434;-81
2021/12/12 11:21:12;;;;;;;2.60;2.50;;;15.50;53.20;;;;;;4996721;28;20422;-82
2021/12/12 11:23:43;;;;;;;2.47;2.27;;;15.50;53.20;;;;;;4995920;28;20496;-82
2021/12/12 11:26:14;;;;;;;2.43;2.33;;;15.50;53.20;;;;;;4996953;28;20476;-82
2021/12/12 11:28:46;;;;;;;2.60;2.40;;;15.50;53.10;;;;;;4996595;28;20433;-82
2021/12/12 11:31:16;;;;;;;3.00;2.70;;;15.60;53.70;;;;;;5005283;28;20459;-84
2021/12/12 11:33:48;;;;;;;2.67;2.57;;;15.50;53.00;;;;;;5011651;28;20571;-82
2021/12/12 11:36:28;;;;;;;2.67;2.57;;;15.60;53.20;;;;;;5011968;28;20540;-82
2021/12/12 11:39:05;;;;;;;2.60;2.50;;;15.60;53.20;;;;;;5011986;28;20460;-82
2021/12/12 11:41:34;;;;;;;3.33;2.97;;;15.60;53.20;;;;;;5011814;28;20534;-84
2021/12/12 11:44:05;;;;;;;2.70;2.53;;;15.60;53.20;;;;;;5011859;28;20460;-82
2021/12/12 11:46:54;;;;;;;2.40;2.30;;;15.70;53.20;;;;;;5009810;28;20484;-82
2021/12/12 11:49:23;;;;;;;2.93;2.73;;;15.70;53.10;;;;;;5011896;28;20496;-83
2021/12/12 11:51:52;;;;;;;3.17;2.87;;;15.70;53.10;;;;;;5012038;28;20476;-83
2021/12/12 11:54:29;;;;;;;2.77;2.60;;;15.70;53.00;;;;;;5012129;28;20484;-83
2021/12/12 11:57:01;;;;;;;2.60;2.40;;;15.70;53.10;;;;;;5012350;28;20450;-84
2021/12/12 11:59:35;;;;;;;2.73;2.57;;;15.70;53.00;;;;;;5012240;28;20440;-83
2021/12/12 12:02:04;;;;;;;2.40;2.30;;;15.70;53.10;;;;;;5012120;28;20536;-83
2021/12/12 12:04:56;;;;;;;2.53;2.37;;;15.80;53.10;;;;;;5010352;28;20456;-83
2021/12/12 12:07:32;;;;;;;2.87;2.63;;;15.70;53.10;;;;;;5011982;28;20441;-83
2021/12/12 12:10:09;;;;;;;2.60;2.47;;;15.80;53.30;;;;;;5012233;28;20563;-83
2021/12/12 12:12:58;;;;;;;2.40;2.30;;;15.80;53.30;;;;;;5011845;28;20466;-83
2021/12/12 12:15:30;;;;;;;2.90;2.70;;;15.80;53.30;;;;;;5012254;28;20505;-82
2021/12/12 12:18:03;;;;;;;2.90;2.70;;;15.80;53.30;;;;;;5011824;28;20503;-82
2021/12/12 12:20:37;;;;;;;2.30;2.20;;;15.90;53.30;;;;;;5012337;28;20532;-83
2021/12/12 12:23:17;;;;;;;2.97;2.67;;;15.90;53.30;;;;;;5010470;28;20471;-83
2021/12/12 12:28:42;;;;;;;3.10;2.67;;;15.90;53.30;;;;;;5011015;28;20527;-83
2021/12/12 12:31:50;;;;;;;2.00;1.90;;;15.90;53.30;;;;;;5011915;28;20473;-84
2021/12/12 12:35:14;;;;;;;2.37;2.17;;;16.00;53.20;;;;;;5019122;28;20476;-82
2021/12/12 12:38:29;;;;;;;2.57;2.47;;;16.00;53.30;;;;;;4947409;28;20503;-83
2021/12/12 12:41:42;;;;;;;2.50;2.37;;;16.00;53.30;;;;;;4907611;29;20462;-82
2021/12/12 12:44:48;;;;;;;2.50;2.30;;;15.90;53.30;;;;;;4967731;28;20487;-83
2021/12/12 13:01:08;;;;;;;2.60;2.40;;;16.00;53.50;;;;;;5055736;27;20619;-83
2021/12/12 13:03:40;;;;;;;2.70;2.60;;;16.20;53.20;;;;;;5055191;28;20454;-83
2021/12/12 13:06:33;;;;;;;2.60;2.47;;;16.20;53.20;;;;;;5054660;28;20461;-82
2021/12/12 13:09:27;;;;;;;2.30;2.17;;;16.20;53.30;;;;;;5051602;28;20513;-83
2021/12/12 13:12:17;;;;;;;1.87;1.77;;;16.10;53.30;;;;;;5044604;28;20446;-83
2021/12/12 13:14:50;;;;;;;2.33;2.23;;;16.20;53.30;;;;;;5052249;28;20457;-83
2021/12/12 13:17:24;;;;;;;2.33;2.23;;;16.20;53.40;;;;;;5051801;28;20494;-84
2021/12/12 13:20:02;;;;;;;2.20;2.10;;;16.20;53.30;;;;;;5059862;28;20414;-83
2021/12/12 13:22:36;;;;;;;2.50;2.40;;;16.20;53.30;;;;;;5059701;28;20427;-84
2021/12/12 13:25:09;;;;;;;2.20;2.10;;;16.20;53.30;;;;;;5059742;28;20443;-83
2021/12/12 13:28:00;;;;;;;2.30;2.20;;;16.20;53.30;;;;;;5059380;28;20462;-84
2021/12/12 13:30:40;;;;;;;2.50;2.30;;;16.30;53.40;;;;;;5054677;28;20497;-84
2021/12/12 13:33:15;;;;;;;2.13;2.00;;;16.20;53.30;;;;;;5039585;28;20459;-83
2021/12/12 13:35:48;;;;;;;2.40;2.20;;;16.30;53.40;;;;;;5039261;28;20435;-83